sensor_id;sensor_type;location;lat;lon;timestamp;P1;durP1;ratioP1;P2;durP2;ratioP2
7985;SDS011;4038;42.612;23.066;2022-12-18T00:01:58;21.87;;;20.37;;
7985;SDS011;4038;42.612;23.066;2022-12-18T00:04:25;21.67;;;20.17;;
7985;SDS011;4038;42.612;23.066;2022-12-18T00:06:51;22.63;;;21.13;;
7985;SDS011;4038;42.612;23.066;2022-12-18T00:09:18;22.43;;;20.93;;
7985;SDS011;4038;42.612;23.066;2022-12-18T00:11:43;22.97;;;21.37;;
7985;SDS011;4038;42.612;23.066;2022-12-18T00:14:12;22.20;;;20.70;;
7985;SDS011;4038;42.612;23.066;2022-12-18T00:16:38;22.43;;;20.73;;
7985;SDS011;4038;42.612;23.066;2022-12-18T00:19:04;23.50;;;21.90;;
7985;SDS011;4038;42.612;23.066;2022-12-18T00:21:31;23.30;;;21.70;;
7985;SDS011;4038;42.612;23.066;2022-12-18T00:23:58;22.57;;;20.97;;
7985;SDS011;4038;42.612;23.066;2022-12-18T00:26:25;22.37;;;20.77;;
7985;SDS011;4038;42.612;23.066;2022-12-18T00:28:53;23.00;;;21.40;;
7985;SDS011;4038;42.612;23.066;2022-12-18T00:31:21;22.57;;;20.97;;
7985;SDS011;4038;42.612;23.066;2022-12-18T00:33:48;21.40;;;20.00;;
7985;SDS011;4038;42.612;23.066;2022-12-18T00:36:15;22.37;;;20.87;;
7985;SDS011;4038;42.612;23.066;2022-12-18T00:38:45;22.77;;;21.17;;
7985;SDS011;4038;42.612;23.066;2022-12-18T00:41:12;22.20;;;20.70;;
7985;SDS011;4038;42.612;23.066;2022-12-18T00:43:38;23.80;;;22.00;;
7985;SDS011;4038;42.612;23.066;2022-12-18T00:46:05;22.87;;;21.17;;
7985;SDS011;4038;42.612;23.066;2022-12-18T00:48:33;22.93;;;21.27;;
7985;SDS011;4038;42.612;23.066;2022-12-18T00:50:59;23.10;;;21.43;;
7985;SDS011;4038;42.612;23.066;2022-12-18T00:53:24;23.63;;;22.03;;
7985;SDS011;4038;42.612;23.066;2022-12-18T00:55:50;22.67;;;21.07;;
7985;SDS011;4038;42.612;23.066;2022-12-18T00:58:16;21.80;;;20.30;;
7985;SDS011;4038;42.612;23.066;2022-12-18T01:00:42;22.47;;;20.77;;
7985;SDS011;4038;42.612;23.066;2022-12-18T01:03:09;21.27;;;19.67;;
7985;SDS011;4038;42.612;23.066;2022-12-18T01:05:38;21.73;;;20.23;;
7985;SDS011;4038;42.612;23.066;2022-12-18T01:08:05;21.97;;;20.37;;
7985;SDS011;4038;42.612;23.066;2022-12-18T01:10:31;21.97;;;20.37;;
7985;SDS011;4038;42.612;23.066;2022-12-18T01:12:56;21.97;;;20.37;;
7985;SDS011;4038;42.612;23.066;2022-12-18T01:15:21;21.77;;;20.27;;
7985;SDS011;4038;42.612;23.066;2022-12-18T01:17:47;21.57;;;20.07;;
7985;SDS011;4038;42.612;23.066;2022-12-18T01:20:12;22.50;;;20.90;;
7985;SDS011;4038;42.612;23.066;2022-12-18T01:22:38;22.50;;;20.80;;
7985;SDS011;4038;42.612;23.066;2022-12-18T01:25:04;22.33;;;20.73;;
7985;SDS011;4038;42.612;23.066;2022-12-18T01:27:38;21.43;;;19.83;;
7985;SDS011;4038;42.612;23.066;2022-12-18T01:30:04;22.87;;;21.27;;
7985;SDS011;4038;42.612;23.066;2022-12-18T01:32:30;21.93;;;20.33;;
7985;SDS011;4038;42.612;23.066;2022-12-18T01:34:56;21.97;;;20.47;;
7985;SDS011;4038;42.612;23.066;2022-12-18T01:37:22;22.57;;;20.97;;
7985;SDS011;4038;42.612;23.066;2022-12-18T01:39:47;22.27;;;20.67;;
7985;SDS011;4038;42.612;23.066;2022-12-18T01:42:14;23.40;;;21.60;;
7985;SDS011;4038;42.612;23.066;2022-12-18T01:44:58;22.33;;;20.73;;
7985;SDS011;4038;42.612;23.066;2022-12-18T01:49:49;21.93;;;20.33;;
7985;SDS011;4038;42.612;23.066;2022-12-18T01:52:17;22.47;;;20.77;;
7985;SDS011;4038;42.612;23.066;2022-12-18T01:54:44;22.73;;;21.03;;
7985;SDS011;4038;42.612;23.066;2022-12-18T01:57:11;20.53;;;19.13;;
7985;SDS011;4038;42.612;23.066;2022-12-18T01:59:36;21.30;;;19.80;;
7985;SDS011;4038;42.612;23.066;2022-12-18T02:02:04;22.20;;;20.50;;
7985;SDS011;4038;42.612;23.066;2022-12-18T02:04:31;23.47;;;21.63;;
7985;SDS011;4038;42.612;23.066;2022-12-18T02:15:26;23.47;;;21.73;;
7985;SDS011;4038;42.612;23.066;2022-12-18T02:18:20;23.03;;;21.33;;
7985;SDS011;4038;42.612;23.066;2022-12-18T02:20:50;23.30;;;21.60;;
7985;SDS011;4038;42.612;23.066;2022-12-18T02:28:46;23.07;;;21.37;;
7985;SDS011;4038;42.612;23.066;2022-12-18T02:31:19;23.30;;;21.53;;
7985;SDS011;4038;42.612;23.066;2022-12-18T02:33:54;24.20;;;22.40;;
7985;SDS011;4038;42.612;23.066;2022-12-18T02:36:23;23.47;;;21.73;;
7985;SDS011;4038;42.612;23.066;2022-12-18T02:38:52;23.83;;;22.13;;
7985;SDS011;4038;42.612;23.066;2022-12-18T02:41:19;23.63;;;21.80;;
7985;SDS011;4038;42.612;23.066;2022-12-18T02:43:52;22.60;;;21.00;;
7985;SDS011;4038;42.612;23.066;2022-12-18T02:48:58;23.17;;;21.47;;
7985;SDS011;4038;42.612;23.066;2022-12-18T02:51:47;23.17;;;21.37;;
7985;SDS011;4038;42.612;23.066;2022-12-18T02:56:51;20.83;;;19.40;;
7985;SDS011;4038;42.612;23.066;2022-12-18T02:59:29;22.23;;;20.63;;
7985;SDS011;4038;42.612;23.066;2022-12-18T03:02:04;22.17;;;20.63;;
7985;SDS011;4038;42.612;23.066;2022-12-18T03:04:43;22.43;;;20.73;;
7985;SDS011;4038;42.612;23.066;2022-12-18T03:08:18;23.27;;;21.57;;
7985;SDS011;4038;42.612;23.066;2022-12-18T03:10:32;22.13;;;20.43;;
7985;SDS011;4038;42.612;23.066;2022-12-18T03:13:13;23.23;;;21.43;;
7985;SDS011;4038;42.612;23.066;2022-12-18T03:15:49;22.67;;;20.97;;
7985;SDS011;4038;42.612;23.066;2022-12-18T03:18:22;22.90;;;21.00;;
7985;SDS011;4038;42.612;23.066;2022-12-18T03:20:51;22.43;;;20.77;;
7985;SDS011;4038;42.612;23.066;2022-12-18T03:23:20;23.33;;;21.70;;
7985;SDS011;4038;42.612;23.066;2022-12-18T03:25:49;23.00;;;21.33;;
7985;SDS011;4038;42.612;23.066;2022-12-18T03:28:19;22.80;;;20.60;;
7985;SDS011;4038;42.612;23.066;2022-12-18T03:30:47;24.23;;;22.33;;
7985;SDS011;4038;42.612;23.066;2022-12-18T03:33:16;24.03;;;22.17;;
7985;SDS011;4038;42.612;23.066;2022-12-18T03:35:46;22.70;;;21.10;;
7985;SDS011;4038;42.612;23.066;2022-12-18T03:38:12;22.80;;;21.10;;
7985;SDS011;4038;42.612;23.066;2022-12-18T03:40:47;22.63;;;20.93;;
7985;SDS011;4038;42.612;23.066;2022-12-18T03:43:59;22.07;;;20.47;;
7985;SDS011;4038;42.612;23.066;2022-12-18T03:46:24;21.53;;;19.93;;
7985;SDS011;4038;42.612;23.066;2022-12-18T03:49:18;22.67;;;21.07;;
7985;SDS011;4038;42.612;23.066;2022-12-18T03:52:01;23.70;;;21.90;;
7985;SDS011;4038;42.612;23.066;2022-12-18T03:54:32;21.87;;;20.37;;
7985;SDS011;4038;42.612;23.066;2022-12-18T03:57:03;23.53;;;21.73;;
7985;SDS011;4038;42.612;23.066;2022-12-18T03:59:32;23.37;;;21.57;;
7985;SDS011;4038;42.612;23.066;2022-12-18T04:01:59;24.47;;;22.57;;
7985;SDS011;4038;42.612;23.066;2022-12-18T04:04:26;24.10;;;22.30;;
7985;SDS011;4038;42.612;23.066;2022-12-18T04:06:53;24.73;;;22.83;;
7985;SDS011;4038;42.612;23.066;2022-12-18T04:09:20;23.23;;;21.43;;
7985;SDS011;4038;42.612;23.066;2022-12-18T04:11:46;24.90;;;22.90;;
7985;SDS011;4038;42.612;23.066;2022-12-18T04:14:12;24.37;;;22.47;;
7985;SDS011;4038;42.612;23.066;2022-12-18T04:16:38;25.43;;;23.33;;
7985;SDS011;4038;42.612;23.066;2022-12-18T04:19:04;25.90;;;23.70;;
7985;SDS011;4038;42.612;23.066;2022-12-18T04:21:32;24.67;;;22.77;;
7985;SDS011;4038;42.612;23.066;2022-12-18T04:23:58;25.63;;;23.50;;
7985;SDS011;4038;42.612;23.066;2022-12-18T04:26:23;25.53;;;23.53;;
7985;SDS011;4038;42.612;23.066;2022-12-18T04:28:48;25.60;;;23.50;;
7985;SDS011;4038;42.612;23.066;2022-12-18T04:31:14;26.17;;;24.07;;
7985;SDS011;4038;42.612;23.066;2022-12-18T04:33:39;26.87;;;24.77;;
7985;SDS011;4038;42.612;23.066;2022-12-18T04:36:05;25.87;;;23.87;;
7985;SDS011;4038;42.612;23.066;2022-12-18T04:38:30;26.53;;;24.33;;
7985;SDS011;4038;42.612;23.066;2022-12-18T04:40:56;26.43;;;24.23;;
7985;SDS011;4038;42.612;23.066;2022-12-18T04:43:21;28.63;;;26.07;;
7985;SDS011;4038;42.612;23.066;2022-12-18T04:45:46;27.80;;;25.30;;
7985;SDS011;4038;42.612;23.066;2022-12-18T04:48:12;26.73;;;24.63;;
7985;SDS011;4038;42.612;23.066;2022-12-18T04:50:37;27.10;;;24.80;;
7985;SDS011;4038;42.612;23.066;2022-12-18T04:53:03;28.23;;;25.80;;
7985;SDS011;4038;42.612;23.066;2022-12-18T04:55:28;27.47;;;25.17;;
7985;SDS011;4038;42.612;23.066;2022-12-18T04:57:54;25.83;;;23.73;;
7985;SDS011;4038;42.612;23.066;2022-12-18T05:00:19;27.80;;;25.50;;
7985;SDS011;4038;42.612;23.066;2022-12-18T05:02:45;27.20;;;24.90;;
7985;SDS011;4038;42.612;23.066;2022-12-18T05:05:10;28.13;;;25.63;;
7985;SDS011;4038;42.612;23.066;2022-12-18T05:07:36;27.60;;;25.30;;
7985;SDS011;4038;42.612;23.066;2022-12-18T05:10:01;27.10;;;24.90;;
7985;SDS011;4038;42.612;23.066;2022-12-18T05:12:27;25.63;;;23.63;;
7985;SDS011;4038;42.612;23.066;2022-12-18T05:14:53;27.87;;;25.60;;
7985;SDS011;4038;42.612;23.066;2022-12-18T05:17:18;27.17;;;25.03;;
7985;SDS011;4038;42.612;23.066;2022-12-18T05:19:43;27.83;;;25.43;;
7985;SDS011;4038;42.612;23.066;2022-12-18T05:22:09;28.47;;;26.07;;
7985;SDS011;4038;42.612;23.066;2022-12-18T05:24:34;27.57;;;25.30;;
7985;SDS011;4038;42.612;23.066;2022-12-18T05:27:00;28.63;;;25.90;;
7985;SDS011;4038;42.612;23.066;2022-12-18T05:29:25;27.90;;;25.60;;
7985;SDS011;4038;42.612;23.066;2022-12-18T05:31:51;28.27;;;25.87;;
7985;SDS011;4038;42.612;23.066;2022-12-18T05:34:16;27.57;;;25.17;;
7985;SDS011;4038;42.612;23.066;2022-12-18T05:36:42;27.90;;;25.50;;
7985;SDS011;4038;42.612;23.066;2022-12-18T05:39:10;27.43;;;24.93;;
7985;SDS011;4038;42.612;23.066;2022-12-18T05:41:35;29.30;;;26.67;;
7985;SDS011;4038;42.612;23.066;2022-12-18T05:44:01;27.57;;;25.17;;
7985;SDS011;4038;42.612;23.066;2022-12-18T05:46:26;30.23;;;27.43;;
7985;SDS011;4038;42.612;23.066;2022-12-18T05:48:52;28.27;;;25.80;;
7985;SDS011;4038;42.612;23.066;2022-12-18T05:51:18;30.00;;;27.30;;
7985;SDS011;4038;42.612;23.066;2022-12-18T05:53:46;31.07;;;28.27;;
7985;SDS011;4038;42.612;23.066;2022-12-18T05:56:16;30.83;;;28.07;;
7985;SDS011;4038;42.612;23.066;2022-12-18T05:58:43;31.47;;;28.40;;
7985;SDS011;4038;42.612;23.066;2022-12-18T06:01:13;31.67;;;28.70;;
7985;SDS011;4038;42.612;23.066;2022-12-18T06:06:16;28.83;;;26.27;;
7985;SDS011;4038;42.612;23.066;2022-12-18T06:08:44;27.00;;;24.70;;
7985;SDS011;4038;42.612;23.066;2022-12-18T06:11:10;28.10;;;25.57;;
7985;SDS011;4038;42.612;23.066;2022-12-18T06:13:36;29.30;;;26.73;;
7985;SDS011;4038;42.612;23.066;2022-12-18T06:16:04;28.93;;;26.33;;
7985;SDS011;4038;42.612;23.066;2022-12-18T06:18:30;29.23;;;26.60;;
7985;SDS011;4038;42.612;23.066;2022-12-18T06:20:57;29.47;;;26.87;;
7985;SDS011;4038;42.612;23.066;2022-12-18T06:23:23;31.10;;;28.27;;
7985;SDS011;4038;42.612;23.066;2022-12-18T06:25:49;30.53;;;27.73;;
7985;SDS011;4038;42.612;23.066;2022-12-18T06:28:14;31.23;;;28.33;;
7985;SDS011;4038;42.612;23.066;2022-12-18T06:30:42;30.57;;;27.83;;
7985;SDS011;4038;42.612;23.066;2022-12-18T06:33:08;32.07;;;29.20;;
7985;SDS011;4038;42.612;23.066;2022-12-18T06:35:34;31.23;;;28.43;;
7985;SDS011;4038;42.612;23.066;2022-12-18T06:38:00;31.17;;;28.37;;
7985;SDS011;4038;42.612;23.066;2022-12-18T06:40:26;31.93;;;28.93;;
7985;SDS011;4038;42.612;23.066;2022-12-18T06:42:52;30.73;;;27.93;;
7985;SDS011;4038;42.612;23.066;2022-12-18T06:45:17;29.77;;;26.97;;
7985;SDS011;4038;42.612;23.066;2022-12-18T06:47:42;31.53;;;28.53;;
7985;SDS011;4038;42.612;23.066;2022-12-18T06:50:08;31.83;;;28.93;;
7985;SDS011;4038;42.612;23.066;2022-12-18T06:52:33;30.30;;;27.60;;
7985;SDS011;4038;42.612;23.066;2022-12-18T06:54:59;32.53;;;29.53;;
7985;SDS011;4038;42.612;23.066;2022-12-18T06:57:24;31.93;;;28.90;;
7985;SDS011;4038;42.612;23.066;2022-12-18T06:59:50;31.67;;;28.67;;
7985;SDS011;4038;42.612;23.066;2022-12-18T07:02:15;31.33;;;28.43;;
7985;SDS011;4038;42.612;23.066;2022-12-18T07:04:41;32.80;;;29.50;;
7985;SDS011;4038;42.612;23.066;2022-12-18T07:07:06;33.30;;;30.20;;
7985;SDS011;4038;42.612;23.066;2022-12-18T07:09:32;30.10;;;27.40;;
7985;SDS011;4038;42.612;23.066;2022-12-18T07:11:57;30.80;;;28.00;;
7985;SDS011;4038;42.612;23.066;2022-12-18T07:14:23;29.13;;;26.53;;
7985;SDS011;4038;42.612;23.066;2022-12-18T07:16:48;32.37;;;29.43;;
7985;SDS011;4038;42.612;23.066;2022-12-18T07:19:14;31.23;;;28.43;;
7985;SDS011;4038;42.612;23.066;2022-12-18T07:21:39;32.83;;;29.83;;
7985;SDS011;4038;42.612;23.066;2022-12-18T07:24:05;32.83;;;29.87;;
7985;SDS011;4038;42.612;23.066;2022-12-18T07:26:31;31.07;;;28.17;;
7985;SDS011;4038;42.612;23.066;2022-12-18T07:28:56;31.63;;;28.73;;
7985;SDS011;4038;42.612;23.066;2022-12-18T07:31:22;30.43;;;27.83;;
7985;SDS011;4038;42.612;23.066;2022-12-18T07:33:48;32.50;;;29.60;;
7985;SDS011;4038;42.612;23.066;2022-12-18T07:36:14;32.73;;;29.73;;
7985;SDS011;4038;42.612;23.066;2022-12-18T07:38:39;31.40;;;28.60;;
7985;SDS011;4038;42.612;23.066;2022-12-18T07:41:07;33.53;;;30.53;;
7985;SDS011;4038;42.612;23.066;2022-12-18T07:43:34;33.43;;;30.23;;
7985;SDS011;4038;42.612;23.066;2022-12-18T07:46:00;32.10;;;29.27;;
7985;SDS011;4038;42.612;23.066;2022-12-18T07:48:26;31.83;;;29.03;;
7985;SDS011;4038;42.612;23.066;2022-12-18T07:50:52;32.13;;;29.33;;
7985;SDS011;4038;42.612;23.066;2022-12-18T07:53:18;32.00;;;29.30;;
7985;SDS011;4038;42.612;23.066;2022-12-18T07:55:43;33.00;;;29.93;;
7985;SDS011;4038;42.612;23.066;2022-12-18T07:58:09;33.30;;;30.27;;
7985;SDS011;4038;42.612;23.066;2022-12-18T08:00:35;32.63;;;29.73;;
7985;SDS011;4038;42.612;23.066;2022-12-18T08:03:00;32.93;;;30.10;;
7985;SDS011;4038;42.612;23.066;2022-12-18T08:05:26;32.33;;;29.37;;
7985;SDS011;4038;42.612;23.066;2022-12-18T08:07:52;31.27;;;28.37;;
7985;SDS011;4038;42.612;23.066;2022-12-18T08:10:18;31.50;;;28.70;;
7985;SDS011;4038;42.612;23.066;2022-12-18T08:12:44;32.53;;;29.63;;
7985;SDS011;4038;42.612;23.066;2022-12-18T08:15:10;35.10;;;31.87;;
7985;SDS011;4038;42.612;23.066;2022-12-18T08:17:35;32.53;;;29.53;;
7985;SDS011;4038;42.612;23.066;2022-12-18T08:20:01;33.20;;;30.10;;
7985;SDS011;4038;42.612;23.066;2022-12-18T08:22:26;31.20;;;28.40;;
7985;SDS011;4038;42.612;23.066;2022-12-18T08:24:52;31.97;;;29.10;;
7985;SDS011;4038;42.612;23.066;2022-12-18T08:27:17;29.73;;;27.13;;
7985;SDS011;4038;42.612;23.066;2022-12-18T08:29:43;32.77;;;29.87;;
7985;SDS011;4038;42.612;23.066;2022-12-18T08:32:08;31.37;;;28.47;;
7985;SDS011;4038;42.612;23.066;2022-12-18T08:34:34;32.23;;;29.30;;
7985;SDS011;4038;42.612;23.066;2022-12-18T08:37:00;32.73;;;29.63;;
7985;SDS011;4038;42.612;23.066;2022-12-18T08:39:25;32.67;;;29.57;;
7985;SDS011;4038;42.612;23.066;2022-12-18T08:41:51;31.43;;;28.53;;
7985;SDS011;4038;42.612;23.066;2022-12-18T08:44:35;33.03;;;30.00;;
7985;SDS011;4038;42.612;23.066;2022-12-18T08:47:04;33.57;;;30.30;;
7985;SDS011;4038;42.612;23.066;2022-12-18T08:49:30;35.47;;;31.87;;
7985;SDS011;4038;42.612;23.066;2022-12-18T08:51:58;33.87;;;30.40;;
7985;SDS011;4038;42.612;23.066;2022-12-18T08:54:24;35.00;;;31.73;;
7985;SDS011;4038;42.612;23.066;2022-12-18T08:56:52;33.47;;;30.33;;
7985;SDS011;4038;42.612;23.066;2022-12-18T08:59:18;34.40;;;31.20;;
7985;SDS011;4038;42.612;23.066;2022-12-18T09:01:44;34.20;;;31.20;;
7985;SDS011;4038;42.612;23.066;2022-12-18T09:04:10;36.40;;;32.93;;
7985;SDS011;4038;42.612;23.066;2022-12-18T09:06:39;34.30;;;31.07;;
7985;SDS011;4038;42.612;23.066;2022-12-18T09:09:05;35.60;;;32.33;;
7985;SDS011;4038;42.612;23.066;2022-12-18T09:11:31;37.33;;;33.73;;
7985;SDS011;4038;42.612;23.066;2022-12-18T09:13:58;34.57;;;31.37;;
7985;SDS011;4038;42.612;23.066;2022-12-18T09:16:25;33.93;;;30.73;;
7985;SDS011;4038;42.612;23.066;2022-12-18T09:18:51;31.63;;;28.83;;
7985;SDS011;4038;42.612;23.066;2022-12-18T09:21:19;34.47;;;31.37;;
7985;SDS011;4038;42.612;23.066;2022-12-18T09:23:49;32.73;;;29.73;;
7985;SDS011;4038;42.612;23.066;2022-12-18T09:26:15;30.50;;;27.70;;
7985;SDS011;4038;42.612;23.066;2022-12-18T09:28:41;31.80;;;29.20;;
7985;SDS011;4038;42.612;23.066;2022-12-18T09:31:07;30.90;;;28.40;;
7985;SDS011;4038;42.612;23.066;2022-12-18T09:33:37;32.50;;;29.63;;
7985;SDS011;4038;42.612;23.066;2022-12-18T09:36:03;28.90;;;26.33;;
7985;SDS011;4038;42.612;23.066;2022-12-18T09:38:33;33.17;;;30.20;;
7985;SDS011;4038;42.612;23.066;2022-12-18T09:43:41;32.60;;;29.50;;
7985;SDS011;4038;42.612;23.066;2022-12-18T09:46:11;33.87;;;30.80;;
7985;SDS011;4038;42.612;23.066;2022-12-18T09:48:45;29.33;;;26.90;;
7985;SDS011;4038;42.612;23.066;2022-12-18T09:51:14;30.90;;;28.13;;
7985;SDS011;4038;42.612;23.066;2022-12-18T09:54:05;31.63;;;28.90;;
7985;SDS011;4038;42.612;23.066;2022-12-18T09:56:34;32.90;;;29.97;;
7985;SDS011;4038;42.612;23.066;2022-12-18T09:59:02;32.70;;;29.80;;
7985;SDS011;4038;42.612;23.066;2022-12-18T10:01:29;31.37;;;28.67;;
7985;SDS011;4038;42.612;23.066;2022-12-18T10:03:56;29.00;;;26.50;;
7985;SDS011;4038;42.612;23.066;2022-12-18T10:09:20;31.03;;;28.27;;
7985;SDS011;4038;42.612;23.066;2022-12-18T10:17:26;29.47;;;26.77;;
7985;SDS011;4038;42.612;23.066;2022-12-18T10:20:07;29.67;;;27.10;;
7985;SDS011;4038;42.612;23.066;2022-12-18T10:28:32;28.20;;;25.73;;
7985;SDS011;4038;42.612;23.066;2022-12-18T10:31:01;30.47;;;27.77;;
7985;SDS011;4038;42.612;23.066;2022-12-18T10:33:28;30.23;;;27.63;;
7985;SDS011;4038;42.612;23.066;2022-12-18T10:35:56;28.00;;;25.70;;
7985;SDS011;4038;42.612;23.066;2022-12-18T10:38:24;28.77;;;26.43;;
7985;SDS011;4038;42.612;23.066;2022-12-18T10:40:56;30.20;;;27.70;;
7985;SDS011;4038;42.612;23.066;2022-12-18T10:48:27;30.97;;;28.17;;
7985;SDS011;4038;42.612;23.066;2022-12-18T10:50:53;31.40;;;28.70;;
7985;SDS011;4038;42.612;23.066;2022-12-18T10:53:22;27.53;;;25.20;;
7985;SDS011;4038;42.612;23.066;2022-12-18T10:55:54;28.43;;;26.00;;
7985;SDS011;4038;42.612;23.066;2022-12-18T11:01:12;31.03;;;28.43;;
7985;SDS011;4038;42.612;23.066;2022-12-18T11:03:45;29.10;;;26.67;;
7985;SDS011;4038;42.612;23.066;2022-12-18T11:06:23;31.33;;;28.53;;
7985;SDS011;4038;42.612;23.066;2022-12-18T11:11:52;29.80;;;27.20;;
7985;SDS011;4038;42.612;23.066;2022-12-18T11:16:54;28.27;;;25.97;;
7985;SDS011;4038;42.612;23.066;2022-12-18T11:19:25;31.03;;;28.33;;
7985;SDS011;4038;42.612;23.066;2022-12-18T11:21:57;30.13;;;27.63;;
7985;SDS011;4038;42.612;23.066;2022-12-18T11:24:26;28.80;;;26.40;;
7985;SDS011;4038;42.612;23.066;2022-12-18T11:26:53;30.00;;;27.53;;
7985;SDS011;4038;42.612;23.066;2022-12-18T11:29:22;28.40;;;26.13;;
7985;SDS011;4038;42.612;23.066;2022-12-18T11:31:52;28.83;;;26.37;;
7985;SDS011;4038;42.612;23.066;2022-12-18T11:37:50;29.53;;;27.13;;
7985;SDS011;4038;42.612;23.066;2022-12-18T11:40:27;27.40;;;25.20;;
7985;SDS011;4038;42.612;23.066;2022-12-18T11:43:00;27.63;;;25.50;;
7985;SDS011;4038;42.612;23.066;2022-12-18T11:45:33;28.87;;;26.67;;
7985;SDS011;4038;42.612;23.066;2022-12-18T11:48:05;30.03;;;27.67;;
7985;SDS011;4038;42.612;23.066;2022-12-18T11:53:16;31.37;;;28.73;;
7985;SDS011;4038;42.612;23.066;2022-12-18T12:10:02;29.33;;;26.73;;
7985;SDS011;4038;42.612;23.066;2022-12-18T12:34:46;28.83;;;26.50;;
7985;SDS011;4038;42.612;23.066;2022-12-18T12:37:44;27.70;;;25.43;;
7985;SDS011;4038;42.612;23.066;2022-12-18T12:40:17;28.33;;;25.93;;
7985;SDS011;4038;42.612;23.066;2022-12-18T12:42:46;28.37;;;26.00;;
7985;SDS011;4038;42.612;23.066;2022-12-18T12:48:43;27.90;;;25.70;;
7985;SDS011;4038;42.612;23.066;2022-12-18T12:51:13;26.60;;;24.40;;
7985;SDS011;4038;42.612;23.066;2022-12-18T12:53:44;27.80;;;25.37;;
7985;SDS011;4038;42.612;23.066;2022-12-18T12:56:11;27.47;;;25.17;;
7985;SDS011;4038;42.612;23.066;2022-12-18T12:58:45;27.73;;;25.10;;
7985;SDS011;4038;42.612;23.066;2022-12-18T13:03:54;28.73;;;26.30;;
7985;SDS011;4038;42.612;23.066;2022-12-18T13:06:53;28.97;;;26.53;;
7985;SDS011;4038;42.612;23.066;2022-12-18T13:09:32;29.83;;;27.23;;
7985;SDS011;4038;42.612;23.066;2022-12-18T13:12:03;29.23;;;26.63;;
7985;SDS011;4038;42.612;23.066;2022-12-18T13:14:53;28.83;;;26.53;;
7985;SDS011;4038;42.612;23.066;2022-12-18T13:20:02;27.63;;;25.43;;
7985;SDS011;4038;42.612;23.066;2022-12-18T13:22:42;29.00;;;26.60;;
7985;SDS011;4038;42.612;23.066;2022-12-18T13:28:10;28.93;;;26.53;;
7985;SDS011;4038;42.612;23.066;2022-12-18T13:43:23;30.07;;;27.47;;
7985;SDS011;4038;42.612;23.066;2022-12-18T13:46:41;29.47;;;26.87;;
7985;SDS011;4038;42.612;23.066;2022-12-18T13:51:24;30.23;;;27.67;;
7985;SDS011;4038;42.612;23.066;2022-12-18T13:54:04;30.87;;;28.27;;
7985;SDS011;4038;42.612;23.066;2022-12-18T13:56:48;26.77;;;24.43;;
7985;SDS011;4038;42.612;23.066;2022-12-18T14:01:51;31.77;;;29.13;;
7985;SDS011;4038;42.612;23.066;2022-12-18T14:07:32;31.00;;;28.23;;
7985;SDS011;4038;42.612;23.066;2022-12-18T14:09:58;31.20;;;28.43;;
7985;SDS011;4038;42.612;23.066;2022-12-18T14:12:32;30.93;;;28.27;;
7985;SDS011;4038;42.612;23.066;2022-12-18T14:15:31;32.67;;;29.83;;
7985;SDS011;4038;42.612;23.066;2022-12-18T14:20:27;29.50;;;26.90;;
7985;SDS011;4038;42.612;23.066;2022-12-18T14:22:57;30.97;;;28.27;;
7985;SDS011;4038;42.612;23.066;2022-12-18T14:25:24;30.20;;;27.70;;
7985;SDS011;4038;42.612;23.066;2022-12-18T14:30:39;29.97;;;27.27;;
7985;SDS011;4038;42.612;23.066;2022-12-18T14:33:10;30.33;;;27.67;;
7985;SDS011;4038;42.612;23.066;2022-12-18T14:35:40;31.30;;;28.40;;
7985;SDS011;4038;42.612;23.066;2022-12-18T14:41:05;30.47;;;27.77;;
7985;SDS011;4038;42.612;23.066;2022-12-18T14:43:32;31.47;;;28.67;;
7985;SDS011;4038;42.612;23.066;2022-12-18T14:45:59;32.13;;;29.33;;
7985;SDS011;4038;42.612;23.066;2022-12-18T14:51:00;32.03;;;29.23;;
7985;SDS011;4038;42.612;23.066;2022-12-18T14:54:14;30.33;;;27.83;;
7985;SDS011;4038;42.612;23.066;2022-12-18T15:01:27;29.17;;;26.57;;
7985;SDS011;4038;42.612;23.066;2022-12-18T15:03:55;26.73;;;24.63;;
7985;SDS011;4038;42.612;23.066;2022-12-18T15:08:55;30.93;;;28.20;;
7985;SDS011;4038;42.612;23.066;2022-12-18T15:14:21;27.77;;;25.37;;
7985;SDS011;4038;42.612;23.066;2022-12-18T15:16:55;28.87;;;26.07;;
7985;SDS011;4038;42.612;23.066;2022-12-18T15:19:22;27.37;;;25.10;;
7985;SDS011;4038;42.612;23.066;2022-12-18T15:21:58;28.60;;;26.10;;
7985;SDS011;4038;42.612;23.066;2022-12-18T15:24:26;26.63;;;24.37;;
7985;SDS011;4038;42.612;23.066;2022-12-18T15:26:55;27.17;;;24.97;;
7985;SDS011;4038;42.612;23.066;2022-12-18T15:29:21;28.40;;;26.10;;
7985;SDS011;4038;42.612;23.066;2022-12-18T15:32:03;29.90;;;27.47;;
7985;SDS011;4038;42.612;23.066;2022-12-18T15:34:30;30.77;;;28.10;;
7985;SDS011;4038;42.612;23.066;2022-12-18T15:36:56;28.00;;;25.70;;
7985;SDS011;4038;42.612;23.066;2022-12-18T15:39:22;27.87;;;25.43;;
7985;SDS011;4038;42.612;23.066;2022-12-18T15:41:47;30.30;;;27.50;;
7985;SDS011;4038;42.612;23.066;2022-12-18T15:44:32;28.60;;;26.30;;
7985;SDS011;4038;42.612;23.066;2022-12-18T15:46:57;30.00;;;27.40;;
7985;SDS011;4038;42.612;23.066;2022-12-18T15:49:23;28.43;;;26.10;;
7985;SDS011;4038;42.612;23.066;2022-12-18T15:51:50;32.80;;;29.60;;
7985;SDS011;4038;42.612;23.066;2022-12-18T15:54:18;27.20;;;24.83;;
7985;SDS011;4038;42.612;23.066;2022-12-18T15:57:04;28.27;;;25.77;;
7985;SDS011;4038;42.612;23.066;2022-12-18T15:59:48;28.07;;;25.47;;
7985;SDS011;4038;42.612;23.066;2022-12-18T16:02:14;28.20;;;25.70;;
7985;SDS011;4038;42.612;23.066;2022-12-18T16:04:42;29.20;;;26.57;;
7985;SDS011;4038;42.612;23.066;2022-12-18T16:07:08;26.53;;;24.33;;
7985;SDS011;4038;42.612;23.066;2022-12-18T16:09:34;27.13;;;24.73;;
7985;SDS011;4038;42.612;23.066;2022-12-18T16:12:00;27.10;;;24.80;;
7985;SDS011;4038;42.612;23.066;2022-12-18T16:14:26;29.03;;;26.20;;
7985;SDS011;4038;42.612;23.066;2022-12-18T16:16:54;28.07;;;25.77;;
7985;SDS011;4038;42.612;23.066;2022-12-18T16:19:23;29.50;;;26.83;;
7985;SDS011;4038;42.612;23.066;2022-12-18T16:21:49;28.00;;;25.63;;
7985;SDS011;4038;42.612;23.066;2022-12-18T16:24:17;30.50;;;27.80;;
7985;SDS011;4038;42.612;23.066;2022-12-18T16:26:44;29.33;;;26.50;;
7985;SDS011;4038;42.612;23.066;2022-12-18T16:29:10;29.97;;;27.13;;
7985;SDS011;4038;42.612;23.066;2022-12-18T16:31:36;31.17;;;28.37;;
7985;SDS011;4038;42.612;23.066;2022-12-18T16:34:15;31.23;;;28.40;;
7985;SDS011;4038;42.612;23.066;2022-12-18T16:36:42;29.80;;;27.10;;
7985;SDS011;4038;42.612;23.066;2022-12-18T16:39:08;30.47;;;27.73;;
7985;SDS011;4038;42.612;23.066;2022-12-18T16:41:34;29.57;;;27.03;;
7985;SDS011;4038;42.612;23.066;2022-12-18T16:44:00;26.57;;;24.33;;
7985;SDS011;4038;42.612;23.066;2022-12-18T16:46:26;31.03;;;28.13;;
7985;SDS011;4038;42.612;23.066;2022-12-18T16:48:51;30.47;;;27.67;;
7985;SDS011;4038;42.612;23.066;2022-12-18T16:51:17;30.13;;;27.40;;
7985;SDS011;4038;42.612;23.066;2022-12-18T16:53:42;30.30;;;27.63;;
7985;SDS011;4038;42.612;23.066;2022-12-18T16:56:08;30.87;;;28.13;;
7985;SDS011;4038;42.612;23.066;2022-12-18T16:58:33;30.20;;;27.47;;
7985;SDS011;4038;42.612;23.066;2022-12-18T17:00:59;32.57;;;29.67;;
7985;SDS011;4038;42.612;23.066;2022-12-18T17:03:24;30.57;;;27.67;;
7985;SDS011;4038;42.612;23.066;2022-12-18T17:05:50;28.63;;;26.17;;
7985;SDS011;4038;42.612;23.066;2022-12-18T17:08:16;30.50;;;27.77;;
7985;SDS011;4038;42.612;23.066;2022-12-18T17:10:41;29.53;;;26.93;;
7985;SDS011;4038;42.612;23.066;2022-12-18T17:13:06;31.47;;;28.67;;
7985;SDS011;4038;42.612;23.066;2022-12-18T17:15:35;30.07;;;27.47;;